This is the latest recevied weather packets stored in our database for station/object W4DEX-2. If no packets are shown the sender has not sent any weather packets the latest 1 day(s).
| Time | Temp. | Humidity | Pressure | Rain* | Wind** | Luminosity | Snow |
|---|---|---|---|---|---|---|---|
| 1836274526 | 24.44° C | 54% | 1017.4 hPa | 0 mm | 0.89 m/s, 185° | - | - |
| 1836274376 | 25° C | 52% | 1017.1 hPa | 0 mm | 0 m/s | - | - |
| 1836274226 | 24.44° C | 54% | 1017.3 hPa | 0 mm | 0.45 m/s, 188° | - | - |
| 1836274076 | 25° C | 52% | 1017.1 hPa | 0 mm | 0.45 m/s, 112° | - | - |
| 1778048702 | 16.67° C | 68% | 1013.8 hPa | 0 mm | 5.81 m/s, 180° | - | - |
| 1778048403 | 16.67° C | 68% | 1013.8 hPa | 0 mm | 4.92 m/s, 175° | - | - |
| 1778048103 | 16.67° C | 68% | 1013.9 hPa | 0 mm | 5.36 m/s, 180° | - | - |
| 1778047802 | 17.22° C | 68% | 1014.1 hPa | 0 mm | 5.81 m/s, 175° | - | - |
| 1778047502 | 17.22° C | 68% | 1014.1 hPa | 0 mm | 5.81 m/s, 178° | - | - |
| 1778047202 | 17.22° C | 68% | 1013.9 hPa | 0 mm | 5.81 m/s, 180° | - | - |
| 1778046902 | 17.22° C | 68% | 1014 hPa | 0 mm | 5.36 m/s, 176° | - | - |
| 1778046603 | 17.22° C | 68% | 1014.1 hPa | 0 mm | 5.36 m/s, 172° | - | - |
| 1778046302 | 17.22° C | 68% | 1014 hPa | 0 mm | 5.36 m/s, 178° | - | - |
| 1778045402 | 17.22° C | 68% | 1014.2 hPa | 0 mm | 5.81 m/s, 174° | - | - |
| 1778045102 | 17.22° C | 68% | 1014.7 hPa | 0 mm | 5.81 m/s, 177° | - | - |
| 1778044802 | 17.22° C | 67% | 1014.4 hPa | 0 mm | 5.81 m/s, 178° | - | - |
| 1778044502 | 17.22° C | 67% | 1014.2 hPa | 0 mm | 6.26 m/s, 178° | - | - |
| 1778043602 | 17.78° C | 66% | 1014.5 hPa | 0 mm | 5.36 m/s, 173° | - | - |
| 1778043302 | 17.78° C | 66% | 1014.5 hPa | 0 mm | 5.36 m/s, 179° | - | - |
| 1778043002 | 17.78° C | 65% | 1014.5 hPa | 0 mm | 5.81 m/s, 174° | - | - |
| 1778042703 | 17.78° C | 65% | 1014.7 hPa | 0 mm | 5.81 m/s, 175° | - | - |
| 1778042102 | 17.78° C | 63% | 1014.5 hPa | 0 mm | 6.26 m/s, 180° | - | - |
| 1778041802 | 17.78° C | 63% | 1014.4 hPa | 0 mm | 5.81 m/s, 174° | - | - |
| 1778041502 | 17.78° C | 62% | 1014.4 hPa | 0 mm | 5.81 m/s, 177° | - | - |
| 1778041202 | 18.33° C | 62% | 1014.5 hPa | 0 mm | 5.36 m/s, 177° | - | - |
* Rain latest hour (hover to see other rain measurements)
** Current wind speed in m/s (hover to see current wind gust speed)